Pilot Boat 183 — FT7120 — position and weather

sailwx.info

Track history (hours):
 
Tides and Currents Weather Stations Pressure Air Temp Water Temp Dewpoint Dewpoint Depression Visibility Wind Speed Wind Dir Waves Ship Positions

Pilot Boat 183

Last reported at 2015-May-22 06:33 UTC. Time now 2015-May-24 09:11 UTC.
Position N 43°18' E 005°21'.

Length 16 m; draft 1 m.

Type: Pilot. MMSI: 227005760.

Date/timePositionNaut miles runAvg speedWind from/ knotsBaromVisibWave heightAir tempDewpointWater temp
2015-May-22 06:33N 43°18' E 005°21'1 0.8
2015-May-22 05:33N 43°18' E 005°22'2 0.2
2015-May-21 19:26N 43°17' E 005°19'4 4.2
2015-May-21 18:28N 43°21' E 005°20'0 0.2
2015-May-21 17:27N 43°21' E 005°20'4 4.7
2015-May-21 16:33N 43°17' E 005°19'0 0.1
2015-May-21 14:22N 43°17' E 005°19'2 0.9
2015-May-21 11:32N 43°18' E 005°22'2 0.4
2015-May-21 05:33N 43°17' E 005°19'0 0.0
2015-May-21 02:23N 43°17' E 005°19'4 2.0
2015-May-21 00:28N 43°20' E 005°20'4 2.8
2015-May-20 23:05N 43°17' E 005°19'3 6.4
2015-May-20 22:33N 43°20' E 005°21'4 4.2
2015-May-20 21:33N 43°19' E 005°15'1 0.3
2015-May-20 17:33N 43°20' E 005°16'4 4.2
2015-May-20 16:33N 43°18' E 005°22'1 0.3
2015-May-20 14:34N 43°18' E 005°21'2 0.5
2015-May-20 11:24N 43°17' E 005°19'2 2.5
2015-May-20 10:33N 43°18' E 005°21'2 2.0
2015-May-20 09:33N 43°17' E 005°19'0 0.0
2015-May-18 15:21N 43°17' E 005°19'2 3.1
2015-May-18 14:33N 43°18' E 005°22'0 0.0
2015-May-18 13:33N 43°18' E 005°22'0 0.0
2015-May-18 12:33N 43°18' E 005°22'0 0.0
2015-May-18 11:33N 43°18' E 005°22'0 0.0
2015-May-18 10:33N 43°18' E 005°22'0 0.0
2015-May-18 09:33N 43°18' E 005°22'0 0.0
2015-May-18 08:33N 43°18' E 005°22'0 0.0
2015-May-18 07:33N 43°18' E 005°22'0 0.0
2015-May-18 06:33N 43°18' E 005°22'0 0.0
2015-May-18 05:33N 43°18' E 005°22'0 0.0
2015-May-18 04:33N 43°18' E 005°22'0 0.0
2015-May-18 03:33N 43°18' E 005°22'0 0.0
2015-May-18 02:33N 43°18' E 005°22'0 0.0
2015-May-18 01:33N 43°18' E 005°22'0 0.0
2015-May-18 00:33N 43°18' E 005°22'0 0.0
2015-May-17 23:33N 43°18' E 005°22'0 0.0
2015-May-17 22:33N 43°18' E 005°22'0 0.0
2015-May-17 21:33N 43°18' E 005°22'0 0.0
2015-May-17 20:33N 43°18' E 005°22'0 0.0
2015-May-17 19:33N 43°18' E 005°22'0 0.0
2015-May-17 18:33N 43°18' E 005°22'0 0.0
2015-May-17 17:33N 43°18' E 005°22'0 0.0
2015-May-17 16:33N 43°18' E 005°22'0 0.0
2015-May-17 15:33N 43°18' E 005°22'0 0.0
2015-May-17 14:33N 43°18' E 005°22'0 0.0
2015-May-17 13:33N 43°18' E 005°22'0 0.0
2015-May-17 12:33N 43°18' E 005°22'0 0.0
2015-May-17 11:33N 43°18' E 005°22'0 0.0
2015-May-17 10:33N 43°18' E 005°22'0 0.0
2015-May-17 09:33N 43°18' E 005°22'0 0.0
2015-May-17 08:33N 43°18' E 005°22'0 0.0
2015-May-17 07:33N 43°18' E 005°22'0 0.0
2015-May-17 06:33N 43°18' E 005°22'2 2.3
2015-May-17 05:34N 43°16' E 005°19'1 0.0
2015-May-15 18:33N 43°17' E 005°19'3 0.8
2015-May-15 15:12N 43°18' E 005°22'2 0.4
2015-May-15 09:12N 43°17' E 005°19'2 3.8
2015-May-15 08:33N 43°18' E 005°22'0 0.0
2015-May-15 07:33N 43°18' E 005°22'6 5.4
2015-May-15 06:33N 43°20' E 005°15'5 4.8
2015-May-15 05:34N 43°19' E 005°21'3 3.0
2015-May-15 04:33N 43°17' E 005°19'2 0.0
2015-May-13 07:33N 43°18' E 005°21'0 0.4
2015-May-13 06:33N 43°18' E 005°22'1 1.0
2015-May-13 05:33N 43°19' E 005°22'1 1.0
2015-May-13 04:33N 43°18' E 005°21'  
Track history (hours):
 
Tides and Currents Weather Stations Pressure Air Temp Water Temp Dewpoint Dewpoint Depression Visibility Wind Speed Wind Dir Waves Ship Positions

Pilot Boat 183

Last reported at 2015-May-22 06:33 UTC. Time now 2015-May-24 09:11 UTC.
Position N 43°18' E 005°21'.

Length 16 m; draft 1 m.

Type: Pilot. MMSI: 227005760.

Date/timePositionNaut miles runAvg speedWind from/ knotsBaromVisibWave heightAir tempDewpointWater temp
2015-May-22 06:33N 43°18' E 005°21'1 0.8
2015-May-22 05:33N 43°18' E 005°22'2 0.2
2015-May-21 19:26N 43°17' E 005°19'4 4.2
2015-May-21 18:28N 43°21' E 005°20'0 0.2
2015-May-21 17:27N 43°21' E 005°20'4 4.7
2015-May-21 16:33N 43°17' E 005°19'0 0.1
2015-May-21 14:22N 43°17' E 005°19'2 0.9
2015-May-21 11:32N 43°18' E 005°22'2 0.4
2015-May-21 05:33N 43°17' E 005°19'0 0.0
2015-May-21 02:23N 43°17' E 005°19'4 2.0
2015-May-21 00:28N 43°20' E 005°20'4 2.8
2015-May-20 23:05N 43°17' E 005°19'3 6.4
2015-May-20 22:33N 43°20' E 005°21'4 4.2
2015-May-20 21:33N 43°19' E 005°15'1 0.3
2015-May-20 17:33N 43°20' E 005°16'4 4.2
2015-May-20 16:33N 43°18' E 005°22'1 0.3
2015-May-20 14:34N 43°18' E 005°21'2 0.5
2015-May-20 11:24N 43°17' E 005°19'2 2.5
2015-May-20 10:33N 43°18' E 005°21'2 2.0
2015-May-20 09:33N 43°17' E 005°19'0 0.0
2015-May-18 15:21N 43°17' E 005°19'2 3.1
2015-May-18 14:33N 43°18' E 005°22'0 0.0
2015-May-18 13:33N 43°18' E 005°22'0 0.0
2015-May-18 12:33N 43°18' E 005°22'0 0.0
2015-May-18 11:33N 43°18' E 005°22'0 0.0
2015-May-18 10:33N 43°18' E 005°22'0 0.0
2015-May-18 09:33N 43°18' E 005°22'0 0.0
2015-May-18 08:33N 43°18' E 005°22'0 0.0
2015-May-18 07:33N 43°18' E 005°22'0 0.0
2015-May-18 06:33N 43°18' E 005°22'0 0.0
2015-May-18 05:33N 43°18' E 005°22'0 0.0
2015-May-18 04:33N 43°18' E 005°22'0 0.0
2015-May-18 03:33N 43°18' E 005°22'0 0.0
2015-May-18 02:33N 43°18' E 005°22'0 0.0
2015-May-18 01:33N 43°18' E 005°22'0 0.0
2015-May-18 00:33N 43°18' E 005°22'0 0.0
2015-May-17 23:33N 43°18' E 005°22'0 0.0
2015-May-17 22:33N 43°18' E 005°22'0 0.0
2015-May-17 21:33N 43°18' E 005°22'0 0.0
2015-May-17 20:33N 43°18' E 005°22'0 0.0
2015-May-17 19:33N 43°18' E 005°22'0 0.0
2015-May-17 18:33N 43°18' E 005°22'0 0.0
2015-May-17 17:33N 43°18' E 005°22'0 0.0
2015-May-17 16:33N 43°18' E 005°22'0 0.0
2015-May-17 15:33N 43°18' E 005°22'0 0.0
2015-May-17 14:33N 43°18' E 005°22'0 0.0
2015-May-17 13:33N 43°18' E 005°22'0 0.0
2015-May-17 12:33N 43°18' E 005°22'0 0.0
2015-May-17 11:33N 43°18' E 005°22'0 0.0
2015-May-17 10:33N 43°18' E 005°22'0 0.0
2015-May-17 09:33N 43°18' E 005°22'0 0.0
2015-May-17 08:33N 43°18' E 005°22'0 0.0
2015-May-17 07:33N 43°18' E 005°22'0 0.0
2015-May-17 06:33N 43°18' E 005°22'2 2.3
2015-May-17 05:34N 43°16' E 005°19'1 0.0
2015-May-15 18:33N 43°17' E 005°19'3 0.8
2015-May-15 15:12N 43°18' E 005°22'2 0.4
2015-May-15 09:12N 43°17' E 005°19'2 3.8
2015-May-15 08:33N 43°18' E 005°22'0 0.0
2015-May-15 07:33N 43°18' E 005°22'6 5.4
2015-May-15 06:33N 43°20' E 005°15'5 4.8
2015-May-15 05:34N 43°19' E 005°21'3 3.0
2015-May-15 04:33N 43°17' E 005°19'2 0.0
2015-May-13 07:33N 43°18' E 005°21'0 0.4
2015-May-13 06:33N 43°18' E 005°22'1 1.0
2015-May-13 05:33N 43°19' E 005°22'1 1.0
2015-May-13 04:33N 43°18' E 005°21'  

Dump ship's entire track history